Daily Data: Northwest Mesa

   
9/24/17
Time         Wind Dir   Wind Spd  Wind Gust   Humidity       Temp  Dew Point   Barom SL  DailyRain   HourRain   RainRate
                            mph        mph          %         F         F         in         in         in      in/hr
12:00am           287          0          0         33       64.8       35.0      29.68       0.00       0.00      0.000
12:05am           287          0          0         33       64.7       35.0      29.68       0.00       0.00      0.000
12:10am           287          0          0         34       64.5       35.5      29.68       0.00       0.00      0.000
12:15am           287          0          0         34       64.3       35.4      29.68       0.00       0.00      0.000
12:20am           287          0          0         34       64.2       35.3      29.68       0.00       0.00      0.000
12:25am           287          0          0         34       63.9       35.0      29.68       0.00       0.00      0.000
12:30am           287          0          0         34       63.5       34.7      29.68       0.00       0.00      0.000
12:35am           288          0          0         39       63.4       38.0      29.68       0.00       0.00      0.000
12:40am           287          0          0         40       63.5       38.8      29.68       0.00       0.00      0.000
12:45am           287          0          0         36       63.7       36.3      29.69       0.00       0.00      0.000
12:50am           287          0          0         35       63.9       35.7      29.69       0.00       0.00      0.000
12:55am           287          0          0         35       63.7       35.6      29.69       0.00       0.00      0.000
1:00am            287          0          0         34       63.5       34.7      29.68       0.00       0.00      0.000
1:05am            287          0          0         33       63.2       33.6      29.68       0.00       0.00      0.000
1:10am            287          0          0         33       63.2       33.6      29.68       0.00       0.00      0.000
1:15am            287          0          0         33       62.9       33.4      29.69       0.00       0.00      0.000
1:20am            287          0          0         33       62.7       33.2      29.69       0.00       0.00      0.000
1:25am            287          0          0         33       62.6       33.1      29.69       0.00       0.00      0.000
1:30am            287          0          0         32       62.4       32.2      29.69       0.00       0.00      0.000
1:35am            287          0          0         31       62.4       31.4      29.69       0.00       0.00      0.000
1:40am            287          0          0         34       62.4       33.7      29.69       0.00       0.00      0.000
1:45am            287          0          0         34       62.3       33.6      29.69       0.00       0.00      0.000
1:50am            287          0          0         34       62.0       33.3      29.69       0.00       0.00      0.000
1:55am            287          0          0         33       61.8       32.4      29.69       0.00       0.00      0.000
2:00am            287          0          0         33       61.6       32.2      29.69       0.00       0.00      0.000
2:05am            287          0          0         34       61.6       33.0      29.69       0.00       0.00      0.000
2:10am            288          0          0         33       61.6       32.2      29.69       0.00       0.00      0.000
2:15am            287          0          0         32       61.5       31.4      29.69       0.00       0.00      0.000
2:20am            287          0          0         31       61.6       30.7      29.69       0.00       0.00      0.000
2:25am            287          0          0         32       61.8       31.7      29.69       0.00       0.00      0.000
2:30am            287          0          0         32       61.6       31.5      29.69       0.00       0.00      0.000
2:35am            287          0          0         33       61.5       32.2      29.69       0.00       0.00      0.000
2:40am            287          0          0         33       61.3       32.0      29.69       0.00       0.00      0.000
2:45am            288          0          0         32       61.0       31.0      29.70       0.00       0.00      0.000
2:50am            287          0          0         34       60.9       32.4      29.70       0.00       0.00      0.000
2:55am            287          0          1         34       60.9       32.4      29.70       0.00       0.00      0.000
3:00am            287          0          0         35       60.7       32.9      29.70       0.00       0.00      0.000
3:05am            287          0          0         34       60.7       32.2      29.70       0.00       0.00      0.000
3:10am            287          0          0         35       60.5       32.7      29.70       0.00       0.00      0.000
3:15am            287          0          0         35       60.2       32.5      29.71       0.00       0.00      0.000
3:20am            287          0          0         35       59.9       32.2      29.71       0.00       0.00      0.000
3:25am            287          0          0         36       59.9       32.9      29.71       0.00       0.00      0.000
3:30am            287          0          0         36       59.9       32.9      29.70       0.00       0.00      0.000
3:35am            287          0          0         36       59.6       32.6      29.70       0.00       0.00      0.000
3:40am            287          0          1         34       59.8       31.4      29.70       0.00       0.00      0.000
3:45am            288          1          2         35       60.2       32.5      29.71       0.00       0.00      0.000
3:50am            288          1          2         32       61.0       31.0      29.71       0.00       0.00      0.000
3:55am            288          1          2         31       61.6       30.7      29.71       0.00       0.00      0.000
4:00am            272          1          3         31       62.4       31.4      29.70       0.00       0.00      0.000
4:05am            106          1          3         30       62.7       30.8      29.70       0.00       0.00      0.000
4:10am            104          1          2         30       63.1       31.2      29.70       0.00       0.00      0.000
4:15am             92          1          3         30       63.2       31.3      29.70       0.00       0.00      0.000
4:20am             92          2          3         29       63.2       30.4      29.70       0.00       0.00      0.000
4:25am             92          0          2         30       63.1       31.2      29.70       0.00       0.00      0.000
4:30am             92          0          0         31       62.6       31.6      29.71       0.00       0.00      0.000
4:35am             92          0          0         31       62.1       31.1      29.71       0.00       0.00      0.000
4:40am             92          0          0         31       61.5       30.6      29.71       0.00       0.00      0.000
4:45am             92          0          2         32       60.9       30.9      29.71       0.00       0.00      0.000
4:50am             92          0          1         34       60.2       31.8      29.71       0.00       0.00      0.000
4:55am             92          0          2         34       59.8       31.4      29.71       0.00       0.00      0.000
5:00am             92          0          2         35       59.3       31.7      29.72       0.00       0.00      0.000
5:05am             92          0          0         36       59.0       32.1      29.72       0.00       0.00      0.000
5:10am             92          0          0         37       58.7       32.5      29.72       0.00       0.00      0.000
5:15am             92          0          0         37       58.6       32.4      29.73       0.00       0.00      0.000
5:20am             92          0          0         38       58.3       32.8      29.73       0.00       0.00      0.000
5:25am             92          0          0         38       58.0       32.6      29.73       0.00       0.00      0.000
5:30am             92          0          0         39       57.8       33.0      29.73       0.00       0.00      0.000
5:35am             92          0          0         39       57.6       32.8      29.73       0.00       0.00      0.000
5:40am             92          0          0         40       57.6       33.5      29.73       0.00       0.00      0.000
5:45am             92          0          0         40       57.5       33.4      29.74       0.00       0.00      0.000
5:50am             92          0          2         41       57.3       33.8      29.74       0.00       0.00      0.000
5:55am             92          0          0         41       57.3       33.8      29.74       0.00       0.00      0.000
6:00am             90          0          0         41       57.2       33.7      29.75       0.00       0.00      0.000
6:05am             90          0          0         41       57.0       33.6      29.75       0.00       0.00      0.000
6:10am             90          0          0         41       56.9       33.5      29.75       0.00       0.00      0.000
6:15am             90          0          0         41       56.9       33.5      29.75       0.00       0.00      0.000
6:20am             90          0          0         42       56.9       34.1      29.75       0.00       0.00      0.000
6:25am             90          0          0         41       56.9       33.5      29.75       0.00       0.00      0.000
6:30am             90          0          0         41       56.9       33.5      29.76       0.00       0.00      0.000
6:35am             90          0          0         40       56.9       32.8      29.76       0.00       0.00      0.000
6:40am             90          1          2         38       57.3       31.9      29.76       0.00       0.00      0.000
6:45am             90          1          2         38       57.6       32.2      29.76       0.00       0.00      0.000
6:50am             90          2          2         40       58.0       33.8      29.76       0.00       0.00      0.000
6:55am             90          0          2         40       58.3       34.1      29.76       0.00       0.00      0.000
7:00am             90          0          1         40       58.3       34.1      29.76       0.00       0.00      0.000
7:05am             90          0          0         40       58.1       33.9      29.76       0.00       0.00      0.000
7:10am             90          0          0         40       58.3       34.1      29.76       0.00       0.00      0.000
7:15am             90          0          0         40       58.6       34.4      29.77       0.00       0.00      0.000
7:20am             90          0          0         39       59.6       34.6      29.77       0.00       0.00      0.000
7:25am             90          0          0         37       61.5       35.0      29.77       0.00       0.00      0.000
7:30am             90          0          0         34       62.6       33.9      29.77       0.00       0.00      0.000
7:35am             90          0          0         33       64.0       34.3      29.77       0.00       0.00      0.000
7:40am             90          0          0         32       65.3       34.7      29.77       0.00       0.00      0.000
7:45am             90          0          0         31       66.1       34.6      29.77       0.00       0.00      0.000
7:50am             88          0          0         30       66.6       34.2      29.77       0.00       0.00      0.000
7:55am             90          0          0         31       67.9       36.2      29.77       0.00       0.00      0.000
8:00am             90          0          0         29       69.3       35.7      29.76       0.00       0.00      0.000
8:05am             90          0          0         29       70.3       36.6      29.76       0.00       0.00      0.000
8:10am             90          0          0         27       71.1       35.5      29.76       0.00       0.00      0.000
8:15am             89          0          0         27       71.5       35.8      29.77       0.00       0.00      0.000
8:20am             90          0          0         26       71.8       35.1      29.77       0.00       0.00      0.000
8:25am             90          0          2         23       72.0       32.2      29.77       0.00       0.00      0.000
8:30am              0          2          3         24       71.5       32.8      29.77       0.00       0.00      0.000
8:35am            347          1          3         25       70.9       33.4      29.77       0.00       0.00      0.000
8:40am            347          0          2         23       71.3       31.6      29.77       0.00       0.00      0.000
8:45am            347          1          3         30       72.0       38.9      29.77       0.00       0.00      0.000
8:50am            339          1          3         22       72.7       31.7      29.77       0.00       0.00      0.000
8:55am            340          2          5         21       73.0       30.8      29.77       0.00       0.00      0.000
9:00am            342          2          5         22       73.5       32.4      29.77       0.00       0.00      0.000
9:05am             61          2          5         20       74.6       30.9      29.77       0.00       0.00      0.000
9:10am             59          2          5         19       75.6       30.5      29.77       0.00       0.00      0.000
9:15am             11          2          6         19       76.5       31.2      29.77       0.00       0.00      0.000
9:20am             34          8          8         18       76.7       30.0      29.77       0.00       0.00      0.000
9:25am              0          1          8         19       76.7       31.4      29.77       0.00       0.00      0.000
9:30am             20          6          6         18       77.0       30.3      29.77       0.00       0.00      0.000
9:35am            302          1          6         18       77.2       30.5      29.77       0.00       0.00      0.000
9:40am            268          3          5         19       77.0       31.6      29.77       0.00       0.00      0.000
9:45am            319          2          7         19       76.5       31.2      29.77       0.00       0.00      0.000
9:50am            304          6          9         19       76.1       30.9      29.77       0.00       0.00      0.000
9:55am            277          3          7         19       76.1       30.9      29.77       0.00       0.00      0.000
10:00am           346          2          7         19       76.3       31.1      29.77       0.00       0.00      0.000
10:05am           271          1          5         18       76.8       30.1      29.77       0.00       0.00      0.000
10:10am           328          5          6         18       77.4       30.6      29.77       0.00       0.00      0.000
10:15am           357          3          7         18       77.2       30.5      29.77       0.00       0.00      0.000
10:20am           357          3          5         18       77.2       30.5      29.77       0.00       0.00      0.000
10:25am           354          2          5         17       77.7       29.5      29.77       0.00       0.00      0.000
10:30am           354          2          3         17       78.5       30.1      29.77       0.00       0.00      0.000
10:35am           353          5          5         17       78.5       30.1      29.77       0.00       0.00      0.000
10:40am           353          3          7         17       78.6       30.2      29.77       0.00       0.00      0.000
10:45am           319          2          8         17       78.5       30.1      29.77       0.00       0.00      0.000
10:50am            32          3          7         17       78.3       29.9      29.77       0.00       0.00      0.000
10:55am           320          0          6         17       79.0       30.5      29.77       0.00       0.00      0.000
11:00am           312          3          5         16       79.4       29.3      29.77       0.00       0.00      0.000
11:05am           236          4          5         16       79.4       29.3      29.77       0.00       0.00      0.000
11:10am           335          2          6         16       79.6       29.5      29.77       0.00       0.00      0.000
11:15am           246          2          8         16       79.8       29.7      29.77       0.00       0.00      0.000
11:20am           315          0          6         16       79.8       29.7      29.77       0.00       0.00      0.000
11:25am           230          5          6         16       80.3       30.1      29.77       0.00       0.00      0.000
11:30am           323          2          7         16       80.3       30.1      29.77       0.00       0.00      0.000
11:35am           325          4          6         16       80.5       30.2      29.77       0.00       0.00      0.000
11:40am            28          1          5         16       80.1       29.9      29.77       0.00       0.00      0.000
11:45am           265          1          6         16       80.5       30.2      29.77       0.00       0.00      0.000
11:50am           224          2          5         17       80.9       32.0      29.77       0.00       0.00      0.000
11:55am           210          2          6         16       81.2       30.8      29.77       0.00       0.00      0.000
12:00pm           254          0          7         16       81.2       30.8      29.76       0.00       0.00      0.000
12:05pm           246          1          8         16       81.4       30.9      29.76       0.00       0.00      0.000
12:10pm           320          1          5         15       81.8       29.7      29.76       0.00       0.00      0.000
12:15pm           274          2          6         15       82.0       29.8      29.75       0.00       0.00      0.000
12:20pm           124          4          5         16       82.2       31.6      29.75       0.00       0.00      0.000
12:25pm           291          4          7         15       82.4       30.2      29.75       0.00       0.00      0.000
12:30pm           265          4          7         15       82.0       29.8      29.75       0.00       0.00      0.000
12:35pm           281          0          4         15       82.0       29.8      29.75       0.00       0.00      0.000
12:40pm           253          2          7         15       82.4       30.2      29.75       0.00       0.00      0.000
12:45pm           247          5         10         15       82.4       30.2      29.74       0.00       0.00      0.000
12:50pm           160          5          6         15       82.2       30.0      29.74       0.00       0.00      0.000
12:55pm           199          4          6         15       82.2       30.0      29.74       0.00       0.00      0.000
1:00pm            234          6         10         15       82.4       30.2      29.74       0.00       0.00      0.000
1:05pm            251          3         11         14       82.4       28.5      29.74       0.00       0.00      0.000
1:10pm            188          3          5         15       82.8       30.5      29.74       0.00       0.00      0.000
1:15pm             17          0          7         14       82.6       28.6      29.74       0.00       0.00      0.000
1:20pm            335          5          6         14       83.0       28.9      29.74       0.00       0.00      0.000
1:25pm            339          0          8         13       82.6       26.8      29.74       0.00       0.00      0.000
1:30pm              0          1          8         13       82.6       26.8      29.73       0.00       0.00      0.000
1:35pm              0          0          7         13       82.4       26.7      29.73       0.00       0.00      0.000
1:40pm            278          0          7         14       82.4       28.5      29.73       0.00       0.00      0.000
1:45pm            282          3          6         13       83.0       27.1      29.73       0.00       0.00      0.000
1:50pm            353          1         10         13       83.6       27.6      29.73       0.00       0.00      0.000
1:55pm            301          2          6         13       83.8       27.8      29.73       0.00       0.00      0.000
2:00pm            256          2          9         13       83.6       27.6      29.72       0.00       0.00      0.000
2:05pm            267          2          7         12       83.8       25.8      29.72       0.00       0.00      0.000
2:10pm            267          1          3         13       83.8       27.8      29.72       0.00       0.00      0.000
2:15pm            243          2          7         12       84.1       26.1      29.72       0.00       0.00      0.000
2:20pm            302          6         11         13       84.1       28.0      29.72       0.00       0.00      0.000
2:25pm            291          7         11         12       84.0       26.0      29.72       0.00       0.00      0.000
2:30pm            318          6          9         12       84.0       26.0      29.71       0.00       0.00      0.000
2:35pm            354          4          7         13       83.6       27.6      29.71       0.00       0.00      0.000
2:40pm              0          0          6         13       83.6       27.6      29.71       0.00       0.00      0.000
2:45pm            316          5         12         12       84.0       26.0      29.71       0.00       0.00      0.000
2:50pm            302          6         11         12       83.8       25.8      29.71       0.00       0.00      0.000
2:55pm            319          2          7         12       83.6       25.7      29.71       0.00       0.00      0.000
3:00pm            147          0          6         12       83.4       25.5      29.70       0.00       0.00      0.000
3:05pm            210          4          4         12       84.0       26.0      29.70       0.00       0.00      0.000
3:10pm            289          6         11         12       84.1       26.1      29.70       0.00       0.00      0.000
3:15pm            298          2          9         12       84.1       26.1      29.70       0.00       0.00      0.000
3:20pm            332          3          8         12       84.1       26.1      29.70       0.00       0.00      0.000
3:25pm            302          2          7         12       84.3       26.2      29.70       0.00       0.00      0.000
3:30pm            301          3          3         12       84.9       26.7      29.69       0.00       0.00      0.000
3:35pm            296          3          5         12       85.3       27.0      29.69       0.00       0.00      0.000
3:40pm            240          2          8         12       85.1       26.8      29.69       0.00       0.00      0.000
3:45pm            282          6          9         12       84.9       26.7      29.69       0.00       0.00      0.000